Time;durP1;ratioP1;P1;durP2;ratioP2;P2;SDS_P1;SDS_P2;PMS_P1;PMS_P2;Temp;Humidity;BMP_temperature;BMP_pressure;BME280_temperature;BME280_humidity;BME280_pressure;Samples;Min_cycle;Max_cycle;Signal;HPM_P1;HPM_P2
2022/01/19 00:01:21;;;;;;;16.10;7.20;;;;;;;3.92;100.00;102429.84;5049743;28;20047;-85
2022/01/19 00:03:48;;;;;;;14.57;7.13;;;;;;;3.95;100.00;102426.44;5054462;28;20048;-85
2022/01/19 00:06:15;;;;;;;18.10;9.00;;;;;;;4.01;100.00;102428.38;5020200;28;20049;-85
2022/01/19 00:08:42;;;;;;;16.30;7.80;;;;;;;3.97;100.00;102434.34;5036881;28;20090;-84
2022/01/19 00:11:09;;;;;;;18.00;7.30;;;;;;;3.97;100.00;102434.34;5050131;28;20044;-84
2022/01/19 00:13:36;;;;;;;16.90;7.90;;;;;;;3.87;100.00;102425.31;5065033;28;20041;-84
2022/01/19 00:16:03;;;;;;;18.43;9.17;;;;;;;3.99;100.00;102424.84;5034310;28;20687;-84
2022/01/19 00:18:32;;;;;;;18.77;8.47;;;;;;;3.93;100.00;102428.09;5034593;28;20049;-84
2022/01/19 00:20:59;;;;;;;16.93;7.33;;;;;;;3.91;100.00;102422.84;5043547;28;20644;-85
2022/01/19 00:23:29;;;;;;;14.43;7.37;;;;;;;3.88;100.00;102416.63;5021852;28;20043;-84
2022/01/19 00:25:56;;;;;;;16.23;7.33;;;;;;;3.84;100.00;102412.09;5034521;28;20050;-83
2022/01/19 00:28:27;;;;;;;17.57;8.90;;;;;;;3.85;100.00;102408.66;5037826;28;20039;-85
2022/01/19 00:30:54;;;;;;;16.30;8.23;;;;;;;3.93;100.00;102405.47;5063589;28;20040;-85
2022/01/19 00:33:25;;;;;;;16.60;7.93;;;;;;;3.95;100.00;102406.44;5023994;28;20047;-86
2022/01/19 00:35:57;;;;;;;16.97;6.80;;;;;;;3.89;100.00;102411.44;5055257;28;20044;-85
2022/01/19 00:38:31;;;;;;;14.40;7.03;;;;;;;3.95;100.00;102403.81;5031034;28;20048;-84
2022/01/19 00:40:58;;;;;;;17.23;7.17;;;;;;;3.88;100.00;102406.16;5054474;28;20037;-83
2022/01/19 00:43:24;;;;;;;20.03;8.63;;;;;;;3.78;100.00;102402.31;5040476;28;20044;-84
2022/01/19 00:45:51;;;;;;;15.23;7.03;;;;;;;3.90;100.00;102418.44;5042367;28;20098;-86
2022/01/19 00:48:26;;;;;;;24.20;8.13;;;;;;;3.91;100.00;102404.53;5047583;28;20059;-86
2022/01/19 00:50:54;;;;;;;16.83;7.60;;;;;;;3.88;100.00;102393.09;5041383;28;20044;-85
2022/01/19 00:53:23;;;;;;;17.53;7.80;;;;;;;3.84;100.00;102401.66;5050337;28;20047;-84
2022/01/19 00:55:50;;;;;;;15.00;8.17;;;;;;;3.85;100.00;102395.56;5041784;28;20043;-82
2022/01/19 00:58:21;;;;;;;14.73;7.13;;;;;;;3.79;100.00;102398.00;5057987;28;20058;-85
2022/01/19 01:00:51;;;;;;;20.97;8.90;;;;;;;3.87;100.00;102405.28;5074270;28;20067;-86
2022/01/19 01:03:21;;;;;;;15.27;7.03;;;;;;;3.83;100.00;102397.25;5057492;28;20047;-85
2022/01/19 01:05:48;;;;;;;17.80;8.10;;;;;;;3.87;100.00;102386.97;5041592;28;20048;-83
2022/01/19 01:08:14;;;;;;;18.83;8.67;;;;;;;3.91;100.00;102391.44;5023060;28;20048;-85
2022/01/19 01:10:42;;;;;;;16.40;7.40;;;;;;;3.82;100.00;102398.09;5037219;28;20048;-84
2022/01/19 01:15:24;;;;;;;14.93;8.37;;;;;;;3.83;100.00;102390.31;5073310;28;20066;-85
2022/01/19 01:16:33;;;;;;;20.65;7.40;;;;;;;3.78;100.00;102384.00;5061323;28;20040;-83
2022/01/19 01:19:07;;;;;;;18.07;8.30;;;;;;;3.76;100.00;102392.66;5060194;28;20040;-85
2022/01/19 01:21:34;;;;;;;16.80;8.97;;;;;;;3.75;100.00;102390.88;5056281;28;20436;-85
2022/01/19 01:24:01;;;;;;;15.80;8.57;;;;;;;3.82;100.00;102378.06;5066237;28;20040;-82
2022/01/19 01:26:30;;;;;;;14.93;7.37;;;;;;;3.81;100.00;102375.41;5056740;28;20040;-86
2022/01/19 01:29:00;;;;;;;18.20;7.80;;;;;;;3.80;100.00;102373.63;5071203;28;20044;-83
2022/01/19 01:31:26;;;;;;;12.37;7.33;;;;;;;3.77;100.00;102349.97;5035696;28;20684;-84
2022/01/19 01:33:53;;;;;;;14.30;7.27;;;;;;;3.72;100.00;102343.72;5054914;28;20049;-83
2022/01/19 01:36:20;;;;;;;19.70;8.17;;;;;;;3.72;100.00;102344.63;5019877;28;20045;-86
2022/01/19 01:38:46;;;;;;;16.90;7.97;;;;;;;3.66;100.00;102332.22;5036763;28;20090;-84
2022/01/19 01:41:14;;;;;;;14.47;6.77;;;;;;;3.65;100.00;102321.72;5075579;23;20136;-81
2022/01/19 01:43:42;;;;;;;14.60;7.37;;;;;;;3.68;100.00;102309.63;5073381;28;20043;-80
2022/01/19 01:46:20;;;;;;;22.30;8.27;;;;;;;3.77;100.00;102319.50;5057502;28;20105;-81
2022/01/19 01:48:47;;;;;;;15.07;7.67;;;;;;;3.74;100.00;102326.38;5075967;28;20112;-80
2022/01/19 01:53:59;;;;;;;15.63;7.63;;;;;;;3.72;100.00;102318.47;5079592;28;20043;-81
2022/01/19 01:56:26;;;;;;;15.37;7.57;;;;;;;3.64;100.00;102304.25;5075570;28;20051;-80
2022/01/19 01:58:52;;;;;;;15.90;6.87;;;;;;;3.67;100.00;102304.34;5077218;28;20446;-84
2022/01/19 02:01:19;;;;;;;15.90;7.67;;;;;;;3.68;100.00;102306.13;5058075;28;20047;-79
2022/01/19 02:03:46;;;;;;;16.47;8.20;;;;;;;3.66;100.00;102297.34;5072093;28;20048;-79
2022/01/19 02:08:57;;;;;;;18.40;8.00;;;;;;;3.62;100.00;102306.81;5058142;28;20411;-80
2022/01/19 02:22:56;;;;;;;18.73;9.13;;;;;;;3.65;100.00;102306.03;5069792;28;20097;-79
2022/01/19 02:25:27;;;;;;;18.27;7.93;;;;;;;3.64;100.00;102291.19;5057143;28;20467;-79
2022/01/19 02:41:36;;;;;;;18.97;9.17;;;;;;;3.65;100.00;102236.34;5056594;28;20480;-80
2022/01/19 02:44:03;;;;;;;21.00;10.47;;;;;;;3.61;100.00;102231.84;5048692;28;20092;-81
2022/01/19 02:49:08;;;;;;;19.57;8.40;;;;;;;3.61;100.00;102218.78;5074616;28;20043;-81
2022/01/19 02:49:18;;;;;;;17.30;9.13;;;;;;;3.50;100.00;102222.75;5073715;28;20039;-81
2022/01/19 02:51:47;;;;;;;21.57;9.20;;;;;;;3.57;100.00;102219.53;5053440;28;20032;-82
2022/01/19 02:54:22;;;;;;;19.00;9.47;;;;;;;3.50;100.00;102227.09;5058720;28;20116;-80
2022/01/19 02:56:52;;;;;;;24.20;9.50;;;;;;;3.65;100.00;102227.63;5054356;28;20387;-81
2022/01/19 03:10:22;;;;;;;25.93;11.37;;;;;;;3.57;100.00;102182.94;5065129;28;20052;-79
2022/01/19 03:12:48;;;;;;;21.40;10.40;;;;;;;3.55;100.00;102178.50;5073766;28;20043;-80
2022/01/19 03:15:15;;;;;;;23.53;10.50;;;;;;;3.51;100.00;102176.63;5053913;28;20040;-81
2022/01/19 03:17:42;;;;;;;24.73;11.63;;;;;;;3.51;100.00;102171.41;5037775;28;20040;-78
2022/01/19 03:20:10;;;;;;;23.53;11.10;;;;;;;3.51;100.00;102176.63;5091968;28;20039;-80
2022/01/19 03:22:48;;;;;;;22.20;11.57;;;;;;;3.49;100.00;102171.34;5056050;28;20039;-81
2022/01/19 03:25:15;;;;;;;29.53;12.27;;;;;;;3.53;100.00;102160.19;5040950;28;20451;-81
2022/01/19 03:27:46;;;;;;;26.80;11.93;;;;;;;3.50;100.00;102148.72;5042440;28;20044;-81
2022/01/19 03:30:14;;;;;;;26.60;11.47;;;;;;;3.52;100.00;102144.41;5041490;28;20051;-78
2022/01/19 03:32:41;;;;;;;22.07;9.97;;;;;;;3.58;100.00;102150.75;5056592;28;20061;-82
2022/01/19 03:35:09;;;;;;;23.73;11.17;;;;;;;3.56;100.00;102149.81;5075366;28;20148;-81
2022/01/19 03:37:36;;;;;;;24.80;11.03;;;;;;;3.53;100.00;102144.50;5062579;28;20043;-82
2022/01/19 03:40:04;;;;;;;25.53;10.67;;;;;;;3.54;100.00;102140.16;5067721;28;20036;-80
2022/01/19 03:42:30;;;;;;;23.10;10.63;;;;;;;3.50;100.00;102144.38;5053354;28;20044;-83
2022/01/19 03:44:57;;;;;;;28.47;10.57;;;;;;;3.53;100.00;102143.56;5058625;28;20126;-81
2022/01/19 03:47:27;;;;;;;23.07;10.67;;;;;;;3.53;100.00;102141.88;5053167;28;20044;-82
2022/01/19 03:49:53;;;;;;;25.60;10.03;;;;;;;3.49;100.00;102145.22;5069987;28;20054;-82
2022/01/19 03:52:21;;;;;;;23.23;11.27;;;;;;;3.53;100.00;102135.75;5056452;28;20089;-82
2022/01/19 03:54:48;;;;;;;22.00;9.93;;;;;;;3.47;100.00;102136.44;5075083;28;20101;-82
2022/01/19 03:57:15;;;;;;;20.53;10.83;;;;;;;3.45;100.00;102132.00;5049819;28;20086;-82
2022/01/19 03:59:42;;;;;;;24.67;11.47;;;;;;;3.57;100.00;102132.41;5076010;28;20061;-82
2022/01/19 04:02:09;;;;;;;20.97;9.80;;;;;;;3.49;100.00;102119.09;5052529;28;20066;-82
2022/01/19 04:04:44;;;;;;;22.00;10.13;;;;;;;3.49;100.00;102123.44;5072999;28;20039;-79
2022/01/19 04:07:30;;;;;;;22.42;9.82;;;;;;;3.42;100.00;102124.06;5057789;28;20047;-82
2022/01/19 04:09:57;;;;;;;22.13;11.40;;;;;;;3.44;100.00;102122.38;5042149;28;20131;-82
2022/01/19 04:15:10;;;;;;;21.27;11.53;;;;;;;3.46;100.00;102120.72;5075090;28;20057;-82
2022/01/19 04:17:41;;;;;;;21.77;10.73;;;;;;;3.45;100.00;102108.47;5060994;28;20044;-82
2022/01/19 04:20:08;;;;;;;24.73;10.73;;;;;;;3.46;100.00;102100.72;5098960;28;20031;-79
2022/01/19 04:22:36;;;;;;;21.57;11.30;;;;;;;3.46;100.00;102099.84;5097346;28;20039;-80
2022/01/19 04:25:02;;;;;;;22.30;11.17;;;;;;;3.46;100.00;102092.88;5079449;28;20040;-78
2022/01/19 04:30:06;;;;;;;28.40;13.50;;;;;;;3.50;100.00;102070.34;5074667;28;20580;-82
2022/01/19 04:32:47;;;;;;;24.60;11.97;;;;;;;3.35;100.00;102063.78;5057507;28;20454;-80
2022/01/19 04:35:20;;;;;;;23.77;11.37;;;;;;;3.37;100.00;102067.34;5065263;28;20092;-82
2022/01/19 04:49:05;;;;;;;24.20;11.50;;;;;;;3.43;100.00;102063.13;5079028;28;20031;-82
2022/01/19 05:03:08;;;;;;;24.53;12.13;;;;;;;3.34;100.00;102063.75;5091562;28;20044;-82
2022/01/19 05:05:46;;;;;;;27.53;12.37;;;;;;;3.29;100.00;102049.66;5079054;28;20036;-82
2022/01/19 05:08:35;;;;;;;32.27;13.83;;;;;;;3.35;100.00;102050.72;5075308;28;20039;-82
2022/01/19 05:13:51;;;;;;;23.47;11.50;;;;;;;3.32;100.00;102032.34;5079987;28;20043;-81
2022/01/19 05:16:20;;;;;;;25.53;12.53;;;;;;;3.32;100.00;102021.91;5077398;28;20043;-82
2022/01/19 05:18:50;;;;;;;28.07;12.07;;;;;;;3.17;100.00;102025.75;5061094;28;20439;-82
2022/01/19 05:21:17;;;;;;;28.20;11.97;;;;;;;3.19;100.00;102016.25;5058992;28;20112;-83
2022/01/19 05:23:44;;;;;;;32.67;13.37;;;;;;;3.27;100.00;102006.91;5077971;28;20043;-80
2022/01/19 05:26:10;;;;;;;25.73;11.90;;;;;;;3.20;100.00;101997.16;5059731;28;20035;-82
2022/01/19 05:28:38;;;;;;;27.93;13.43;;;;;;;3.18;100.00;101998.81;5058735;28;20040;-83
2022/01/19 05:31:05;;;;;;;29.63;13.60;;;;;;;3.20;100.00;101998.03;5064454;28;20036;-82
2022/01/19 05:33:32;;;;;;;25.43;11.93;;;;;;;3.32;100.00;101997.50;5059259;28;20051;-81
2022/01/19 05:35:59;;;;;;;23.03;11.80;;;;;;;3.28;100.00;101991.31;5058765;28;20476;-82
2022/01/19 05:38:26;;;;;;;23.50;11.73;;;;;;;3.23;100.00;101986.78;5054513;28;20040;-83
2022/01/19 05:40:52;;;;;;;32.10;13.20;;;;;;;3.24;100.00;101992.06;5060506;28;20553;-80
2022/01/19 05:43:19;;;;;;;27.17;11.93;;;;;;;3.19;100.00;101980.56;5043159;28;20089;-82
2022/01/19 05:45:46;;;;;;;31.20;11.73;;;;;;;3.19;100.00;101979.69;5059685;28;20074;-83
2022/01/19 05:48:12;;;;;;;25.03;11.70;;;;;;;3.11;100.00;101966.38;5071673;28;20135;-83
2022/01/19 05:50:39;;;;;;;21.53;11.03;;;;;;;3.12;100.00;101962.09;5067763;28;20047;-82
2022/01/19 05:53:06;;;;;;;27.23;12.50;;;;;;;3.20;100.00;101952.75;5089373;28;20032;-82
2022/01/19 05:55:32;;;;;;;27.97;12.07;;;;;;;3.22;100.00;101941.50;5096761;28;20092;-82
2022/01/19 05:57:59;;;;;;;20.80;10.87;;;;;;;3.21;100.00;101936.25;5056102;28;20105;-81
2022/01/19 06:00:29;;;;;;;27.10;11.47;;;;;;;3.23;100.00;101925.00;5040519;28;20055;-82
2022/01/19 06:02:55;;;;;;;28.90;13.13;;;;;;;3.22;100.00;101925.84;5055757;28;20118;-83
2022/01/19 06:05:22;;;;;;;25.37;12.57;;;;;;;3.16;100.00;101923.03;5042743;28;20107;-83
2022/01/19 06:07:49;;;;;;;25.47;12.40;;;;;;;3.10;100.00;101907.19;5091830;28;20069;-83
2022/01/19 06:13:02;;;;;;;22.23;11.80;;;;;;;3.16;100.00;101899.53;5077065;28;20048;-83
2022/01/19 06:15:29;;;;;;;23.57;13.17;;;;;;;3.19;100.00;101894.38;5058864;28;20252;-82
2022/01/19 06:17:58;;;;;;;30.50;12.70;;;;;;;3.16;100.00;101882.97;5074790;28;20051;-81
2022/01/19 06:20:25;;;;;;;31.20;14.23;;;;;;;3.18;100.00;101863.91;5075793;28;20104;-82
2022/01/19 06:22:54;;;;;;;31.83;13.13;;;;;;;3.10;100.00;101868.91;5058661;28;20044;-81
2022/01/19 06:25:21;;;;;;;26.17;12.67;;;;;;;3.17;100.00;101859.53;5076067;28;20043;-81
2022/01/19 06:27:48;;;;;;;30.47;14.37;;;;;;;3.22;100.00;101857.94;5058417;28;20089;-82
2022/01/19 06:30:14;;;;;;;27.97;13.33;;;;;;;3.23;100.00;101875.38;5060418;28;20043;-82
2022/01/19 06:32:41;;;;;;;29.60;14.33;;;;;;;3.15;100.00;101874.25;5057639;28;20092;-82
2022/01/19 06:35:08;;;;;;;25.80;12.67;;;;;;;3.19;100.00;101876.09;5059950;28;20047;-82
2022/01/19 06:37:35;;;;;;;27.43;14.93;;;;;;;3.19;100.00;101885.66;5073933;28;20044;-82
2022/01/19 06:40:06;;;;;;;27.13;14.43;;;;;;;3.18;100.00;101883.91;5051830;28;20386;-80
2022/01/19 06:42:35;;;;;;;30.07;13.63;;;;;;;3.16;100.00;101875.16;5051763;28;20122;-84
2022/01/19 06:45:03;;;;;;;34.07;14.53;;;;;;;3.07;100.00;101873.16;5059223;28;20058;-81
2022/01/19 06:47:30;;;;;;;32.50;14.40;;;;;;;3.05;100.00;101852.22;5091369;28;20058;-81
2022/01/19 06:49:57;;;;;;;26.60;12.73;;;;;;;3.11;100.00;101843.66;5056804;27;20048;-79
2022/01/19 06:52:24;;;;;;;31.20;15.23;;;;;;;3.09;100.00;101838.41;5058481;28;20047;-83
2022/01/19 06:54:51;;;;;;;30.40;13.70;;;;;;;3.15;100.00;101837.72;5058561;28;20096;-79
2022/01/19 06:57:18;;;;;;;28.03;13.77;;;;;;;3.13;100.00;101826.34;5074148;28;20047;-80
2022/01/19 06:59:44;;;;;;;32.77;14.40;;;;;;;3.02;100.00;101826.00;5059510;28;20044;-81
2022/01/19 07:02:11;;;;;;;27.37;13.53;;;;;;;3.07;100.00;101819.22;5055039;28;20052;-83
2022/01/19 07:04:39;;;;;;;26.43;13.23;;;;;;;3.01;100.00;101819.03;5061648;27;20043;-79
2022/01/19 07:07:06;;;;;;;25.97;13.47;;;;;;;3.06;100.00;101800.91;5066449;28;20525;-83
2022/01/19 07:09:32;;;;;;;28.60;14.87;;;;;;;2.96;100.00;101797.16;5071406;28;20418;-80
2022/01/19 07:11:59;;;;;;;29.87;13.47;;;;;;;2.98;100.00;101791.97;5053281;28;20044;-80
2022/01/19 07:14:26;;;;;;;26.80;13.00;;;;;;;2.94;100.00;101785.75;5049120;28;20040;-83
2022/01/19 07:16:52;;;;;;;24.03;12.23;;;;;;;2.97;100.00;101784.97;5057288;28;20079;-84
2022/01/19 07:19:19;;;;;;;27.87;13.90;;;;;;;3.02;100.00;101781.63;5058914;28;20533;-81
2022/01/19 07:21:46;;;;;;;23.57;11.77;;;;;;;3.07;100.00;101782.66;5069168;28;20040;-82
2022/01/19 07:24:14;;;;;;;25.53;13.37;;;;;;;3.05;100.00;101788.69;5065728;28;20496;-84
2022/01/19 07:26:41;;;;;;;21.53;11.50;;;;;;;3.04;100.00;101771.25;5049633;28;20044;-82
2022/01/19 07:29:08;;;;;;;22.53;13.47;;;;;;;3.10;100.00;101774.91;5055873;28;20063;-82
2022/01/19 07:31:35;;;;;;;25.40;11.90;;;;;;;3.11;100.00;101773.16;5070188;28;20098;-81
2022/01/19 07:34:01;;;;;;;27.00;12.40;;;;;;;3.04;100.00;101772.16;5048243;28;20040;-80
2022/01/19 07:36:29;;;;;;;29.47;13.30;;;;;;;3.06;100.00;101767.84;5056514;28;20048;-82
2022/01/19 07:38:55;;;;;;;24.57;12.80;;;;;;;3.10;100.00;101756.63;5054146;28;20048;-80
2022/01/19 07:41:22;;;;;;;24.70;12.07;;;;;;;3.12;100.00;101746.25;5053783;28;20051;-81
2022/01/19 07:43:49;;;;;;;23.80;12.50;;;;;;;3.12;100.00;101740.16;5054842;28;20041;-82
2022/01/19 07:46:17;;;;;;;24.80;12.57;;;;;;;2.99;100.00;101733.69;5061122;28;20421;-81
2022/01/19 07:48:44;;;;;;;26.07;13.77;;;;;;;3.12;100.00;101729.69;5074564;28;20040;-83
2022/01/19 07:51:11;;;;;;;31.20;13.73;;;;;;;3.17;100.00;101728.97;5059295;28;20048;-81
2022/01/19 07:53:38;;;;;;;24.57;14.40;;;;;;;3.11;100.00;101728.78;5061504;28;20077;-80
2022/01/19 07:56:05;;;;;;;27.80;12.63;;;;;;;3.12;100.00;101724.47;5060529;28;20806;-83
2022/01/19 07:58:32;;;;;;;28.97;13.43;;;;;;;3.10;100.00;101727.03;5078316;28;20047;-81
2022/01/19 08:00:58;;;;;;;23.80;11.93;;;;;;;3.12;100.00;101719.25;5076389;28;20389;-80
2022/01/19 08:03:25;;;;;;;26.10;13.47;;;;;;;3.17;100.00;101723.72;5056126;28;20040;-81
2022/01/19 08:05:52;;;;;;;27.63;13.80;;;;;;;3.19;100.00;101722.03;5092921;28;20047;-81
2022/01/19 08:08:19;;;;;;;27.93;13.47;;;;;;;3.10;100.00;101720.06;5059465;28;20054;-80
2022/01/19 08:10:45;;;;;;;29.47;12.80;;;;;;;3.14;100.00;101713.22;5072408;28;20054;-79
2022/01/19 08:13:14;;;;;;;24.77;13.00;;;;;;;3.12;100.00;101716.66;5077569;28;20042;-81
2022/01/19 08:15:41;;;;;;;25.30;13.73;;;;;;;3.12;100.00;101709.69;5066641;28;20044;-80
2022/01/19 08:18:10;;;;;;;28.83;13.93;;;;;;;3.08;100.00;101703.50;5064416;28;20142;-81
2022/01/19 08:20:40;;;;;;;25.33;12.57;;;;;;;3.12;100.00;101704.47;5092186;28;20044;-81
2022/01/19 08:23:07;;;;;;;25.07;12.47;;;;;;;3.15;100.00;101701.94;5078518;28;20069;-80
2022/01/19 08:25:33;;;;;;;25.70;14.27;;;;;;;3.18;100.00;101694.16;5062787;28;20050;-80
2022/01/19 08:28:00;;;;;;;27.60;13.33;;;;;;;3.24;100.00;101690.84;5059410;28;20477;-81
2022/01/19 08:30:27;;;;;;;25.30;14.00;;;;;;;3.25;100.00;101700.44;5098416;27;20039;-83
2022/01/19 08:32:53;;;;;;;25.73;14.03;;;;;;;3.31;100.00;101698.88;5080917;28;20058;-81
2022/01/19 08:35:21;;;;;;;26.27;13.43;;;;;;;3.28;100.00;101703.13;5076286;28;20082;-80
2022/01/19 08:37:48;;;;;;;25.13;13.37;;;;;;;3.22;100.00;101700.38;5057931;28;20748;-82
2022/01/19 08:40:15;;;;;;;32.67;14.70;;;;;;;3.28;100.00;101696.19;5059211;28;20039;-80
2022/01/19 08:42:42;;;;;;;25.70;13.83;;;;;;;3.37;100.00;101688.59;5074345;28;20044;-81
2022/01/19 08:45:09;;;;;;;29.23;15.50;;;;;;;3.41;100.00;101697.38;5093896;28;20040;-81
2022/01/19 08:47:37;;;;;;;26.60;13.23;;;;;;;3.43;100.00;101689.56;5075565;28;20036;-82
2022/01/19 08:50:09;;;;;;;26.37;14.07;;;;;;;3.46;100.00;101692.28;5071973;28;20047;-82
2022/01/19 08:52:39;;;;;;;31.37;15.60;;;;;;;3.40;100.00;101685.16;5048311;28;20036;-82
2022/01/19 08:55:06;;;;;;;32.53;16.00;;;;;;;3.49;100.00;101680.16;5042114;28;20067;-80
2022/01/19 08:57:33;;;;;;;29.83;15.60;;;;;;;3.45;100.00;101677.44;5079800;28;20036;-81
2022/01/19 09:00:00;;;;;;;30.13;15.10;;;;;;;3.42;100.00;101670.41;5041927;28;20047;-82
2022/01/19 09:02:26;;;;;;;33.60;15.27;;;;;;;3.42;100.00;101662.56;5080891;28;20043;-81
2022/01/19 09:04:53;;;;;;;32.40;16.10;;;;;;;3.47;100.00;101654.84;5057783;28;20048;-80
2022/01/19 09:07:20;;;;;;;27.90;14.17;;;;;;;3.50;100.00;101654.91;5056647;28;20040;-82
2022/01/19 09:09:47;;;;;;;28.50;14.63;;;;;;;3.49;100.00;101642.72;5060279;28;20048;-82
2022/01/19 09:12:13;;;;;;;26.47;13.87;;;;;;;3.56;100.00;101635.06;5056136;28;20544;-81
2022/01/19 09:14:40;;;;;;;27.97;13.73;;;;;;;3.64;100.00;101624.78;5080249;28;20047;-82
2022/01/19 09:17:07;;;;;;;28.07;13.80;;;;;;;3.57;100.00;101626.38;5076333;28;20054;-84
2022/01/19 09:19:36;;;;;;;29.30;13.93;;;;;;;3.58;100.00;101620.28;5094979;28;20390;-82
2022/01/19 09:22:03;;;;;;;25.10;13.47;;;;;;;3.70;100.00;101617.09;5092746;28;20576;-84
2022/01/19 09:24:30;;;;;;;26.37;14.70;;;;;;;3.72;100.00;101618.00;5078500;28;20054;-83
2022/01/19 09:26:57;;;;;;;25.33;14.23;;;;;;;3.79;100.00;101614.69;5092967;28;20047;-85
2022/01/19 09:29:23;;;;;;;29.20;13.70;;;;;;;3.77;100.00;101615.47;5090693;28;20134;-82
2022/01/19 09:31:50;;;;;;;23.77;12.00;;;;;;;3.78;100.00;101612.91;5061465;28;20084;-81
2022/01/19 09:34:20;;;;;;;26.83;13.23;;;;;;;3.76;100.00;101608.50;5097757;28;20039;-84
2022/01/19 09:36:48;;;;;;;24.07;13.23;;;;;;;3.90;100.00;101602.72;5068759;28;20039;-82
2022/01/19 09:39:20;;;;;;;22.40;12.97;;;;;;;3.89;100.00;101595.75;5072150;28;20054;-80
2022/01/19 09:41:48;;;;;;;25.33;14.27;;;;;;;4.02;100.00;101590.75;5054571;28;20050;-83
2022/01/19 09:44:17;;;;;;;29.47;17.50;;;;;;;4.04;100.00;101592.56;5039167;28;20090;-83
2022/01/19 09:46:44;;;;;;;25.83;14.33;;;;;;;4.06;100.00;101603.06;5057743;28;20101;-82
2022/01/19 09:49:15;;;;;;;24.30;13.40;;;;;;;4.05;100.00;101603.91;5075642;28;20130;-82
2022/01/19 09:51:43;;;;;;;28.27;14.33;;;;;;;4.18;100.00;101606.78;5073704;28;20306;-81
2022/01/19 09:54:14;;;;;;;24.57;12.93;;;;;;;4.20;100.00;101594.66;5090809;28;20043;-84
2022/01/19 09:56:41;;;;;;;21.13;10.80;;;;;;;4.18;100.00;101588.50;5107752;28;20066;-84
2022/01/19 09:59:08;;;;;;;20.37;11.03;;;;;;;4.20;100.00;101589.44;5080593;28;20058;-86
2022/01/19 10:01:35;;;;;;;26.10;10.90;;;;;;;4.11;100.00;101580.47;5074441;28;20040;-83
2022/01/19 10:04:18;;;;;;;17.67;10.20;;;;;;;4.23;100.00;101588.59;5070678;28;20043;-83
2022/01/19 10:06:45;;;;;;;30.17;14.70;;;;;;;4.26;100.00;101575.56;5067811;28;20047;-82
2022/01/19 10:09:13;;;;;;;22.30;11.57;;;;;;;4.27;100.00;101574.72;5066774;28;20048;-84
2022/01/19 10:17:06;;;;;;;30.10;18.27;;;;;;;4.22;100.00;101566.78;5087471;28;20058;-82
2022/01/19 10:19:41;;;;;;;24.00;13.43;;;;;;;4.22;100.00;101569.41;5086945;28;20039;-82
2022/01/19 10:22:19;;;;;;;20.23;11.13;;;;;;;4.16;100.00;101566.66;5102679;28;20073;-81
2022/01/19 10:24:51;;;;;;;18.50;12.00;;;;;;;4.24;100.00;101577.28;5064289;28;20039;-83
2022/01/19 10:27:27;;;;;;;19.90;10.50;;;;;;;4.22;100.00;101558.06;5079641;28;20055;-82
2022/01/19 10:30:02;;;;;;;16.33;9.47;;;;;;;4.20;100.00;101550.19;5097000;28;20048;-82
2022/01/19 10:32:43;;;;;;;18.60;10.93;;;;;;;4.25;100.00;101552.88;5084333;28;20051;-81
2022/01/19 10:35:30;;;;;;;20.33;10.37;;;;;;;4.25;100.00;101542.41;5086349;28;20044;-81
2022/01/19 10:38:06;;;;;;;20.73;10.80;;;;;;;4.19;100.00;101539.69;5067299;28;20073;-81
2022/01/19 10:40:34;;;;;;;22.10;11.03;;;;;;;4.21;100.00;101530.16;5101197;28;20047;-82
2022/01/19 10:43:38;;;;;;;19.77;11.10;;;;;;;4.21;100.00;101530.16;5084706;28;20051;-82
2022/01/19 10:46:28;;;;;;;24.73;12.03;;;;;;;4.21;100.00;101522.31;5079045;28;20393;-83
2022/01/19 10:49:07;;;;;;;25.07;12.33;;;;;;;4.24;100.00;101511.88;5065370;28;20066;-83
2022/01/19 10:51:44;;;;;;;25.13;11.83;;;;;;;4.26;100.00;101506.69;5077621;28;20109;-82
2022/01/19 10:54:17;;;;;;;19.80;10.50;;;;;;;4.32;100.00;101492.00;5064893;28;20127;-82
2022/01/19 10:56:48;;;;;;;25.00;13.13;;;;;;;4.31;100.00;101479.78;5062408;28;20052;-83
2022/01/19 10:59:17;;;;;;;22.63;11.23;;;;;;;4.18;100.00;101477.75;5065928;28;20051;-81
2022/01/19 11:01:48;;;;;;;25.43;12.87;;;;;;;4.16;100.00;101459.44;5062422;28;20048;-82
2022/01/19 11:04:42;;;;;;;24.13;12.77;;;;;;;4.10;100.00;101445.34;5065550;28;20044;-81
2022/01/19 11:07:12;;;;;;;27.70;15.30;;;;;;;4.09;100.00;101435.75;5060763;28;20779;-81
2022/01/19 11:09:56;;;;;;;23.53;13.50;;;;;;;4.09;100.00;101434.03;5067951;28;20058;-83
2022/01/19 11:12:27;;;;;;;23.40;12.45;;;;;;;4.15;100.00;101438.50;5084283;28;20047;-82
2022/01/19 11:14:54;;;;;;;21.60;11.23;;;;;;;4.13;100.00;101421.91;5102380;28;20077;-82
2022/01/19 11:17:35;;;;;;;28.60;13.60;;;;;;;4.11;100.00;101419.22;5068878;28;20039;-82
2022/01/19 11:20:09;;;;;;;20.77;11.73;;;;;;;4.19;100.00;101414.13;5058398;28;20471;-82
2022/01/19 11:22:39;;;;;;;22.63;11.77;;;;;;;4.18;100.00;101405.41;5083315;28;20040;-83
2022/01/19 11:25:24;;;;;;;22.20;11.67;;;;;;;4.27;100.00;101393.34;5072520;28;20044;-82
2022/01/19 11:28:10;;;;;;;25.00;12.40;;;;;;;4.36;100.00;101383.03;5103873;28;20040;-80
2022/01/19 11:30:45;;;;;;;19.70;11.47;;;;;;;4.44;100.00;101378.81;5071635;28;20069;-81
2022/01/19 11:33:25;;;;;;;26.80;12.83;;;;;;;4.40;100.00;101370.03;5086884;28;20040;-80
2022/01/19 11:36:04;;;;;;;49.93;28.47;;;;;;;4.38;100.00;101356.06;5098522;28;20040;-82
2022/01/19 11:38:41;;;;;;;24.00;13.30;;;;;;;4.41;100.00;101350.88;5073562;28;20036;-80
2022/01/19 11:41:08;;;;;;;24.93;12.07;;;;;;;4.33;100.00;101339.41;5118761;28;20040;-83
2022/01/19 11:43:37;;;;;;;30.27;15.10;;;;;;;4.44;100.00;101327.38;5104727;28;20044;-81
2022/01/19 11:46:05;;;;;;;28.93;15.23;;;;;;;4.49;100.00;101328.31;5087977;28;20051;-80
2022/01/19 11:48:35;;;;;;;28.07;14.63;;;;;;;4.62;100.00;101315.41;5072259;28;20047;-81
2022/01/19 11:51:20;;;;;;;27.40;13.97;;;;;;;4.63;100.00;101312.84;5068633;28;20078;-81
2022/01/19 11:54:07;;;;;;;22.87;12.73;;;;;;;4.65;100.00;101313.72;5121418;28;20032;-81
2022/01/19 11:57:01;;;;;;;23.77;14.30;;;;;;;4.60;100.00;101304.03;5083899;28;20587;-83
2022/01/19 11:59:32;;;;;;;25.98;13.90;;;;;;;4.60;100.00;101297.06;5076109;28;20059;-82
2022/01/19 12:02:20;;;;;;;26.50;14.37;;;;;;;4.53;100.00;101280.41;5099220;28;20039;-81
2022/01/19 12:05:10;;;;;;;25.03;13.60;;;;;;;4.52;100.00;101259.44;5087974;28;20584;-81
2022/01/19 12:08:02;;;;;;;27.40;15.20;;;;;;;4.57;100.00;101262.16;5126989;22;20446;-83
2022/01/19 12:10:31;;;;;;;20.33;12.13;;;;;;;4.59;100.00;101261.28;5049631;28;20068;-82
2022/01/19 12:16:25;;;;;;;25.93;11.60;;;;;;;4.55;100.00;101240.31;5071797;28;20040;-83
2022/01/19 12:18:58;;;;;;;30.37;16.43;;;;;;;4.57;100.00;101233.34;5073397;28;20101;-83
2022/01/19 12:21:30;;;;;;;30.93;16.97;;;;;;;4.52;100.00;101221.06;5038880;28;20050;-83
2022/01/19 12:24:29;;;;;;;31.07;16.23;;;;;;;4.65;100.00;101210.78;5073211;28;20484;-83
2022/01/19 12:27:07;;;;;;;31.03;15.70;;;;;;;4.71;100.00;101210.88;5039102;28;20447;-83
2022/01/19 12:29:33;;;;;;;25.13;13.93;;;;;;;4.69;100.00;101192.50;5057909;28;20166;-84
2022/01/19 12:32:01;;;;;;;21.13;13.43;;;;;;;4.70;100.00;101180.28;5071690;28;20040;-84
2022/01/19 12:34:51;;;;;;;19.57;12.53;;;;;;;4.66;100.00;101181.13;5039824;28;20101;-85
2022/01/19 12:37:40;;;;;;;23.27;13.63;;;;;;;4.73;100.00;101169.88;5041723;28;20044;-85
2022/01/19 12:40:27;;;;;;;24.37;12.53;;;;;;;4.64;100.00;101159.31;5084916;28;20048;-84
2022/01/19 12:42:58;;;;;;;23.60;12.87;;;;;;;4.68;100.00;101148.88;5055602;28;20048;-84
2022/01/19 12:45:35;;;;;;;21.47;9.17;;;;;;;4.79;100.00;101148.97;5046408;28;20139;-84
2022/01/19 12:48:07;;;;;;;16.17;8.50;;;;;;;4.84;100.00;101141.19;5046414;28;20538;-84
2022/01/19 12:50:38;;;;;;;16.60;8.10;;;;;;;4.94;100.00;101150.91;5046628;28;20048;-84